Time;durP1;ratioP1;P1;durP2;ratioP2;P2;SDS_P1;SDS_P2;PMS_P1;PMS_P2;Temp;Humidity;BMP_temperature;BMP_pressure;BME280_temperature;BME280_humidity;BME280_pressure;Samples;Min_cycle;Max_cycle;Signal;HPM_P1;HPM_P2
2022/06/09 00:01:03;;;;;;;;;;;19.30;85.40;;;;;;6147264;23;19935;-96
2022/06/09 00:03:33;;;;;;;;;;;19.30;85.80;;;;;;6172649;23;19978;-96
2022/06/09 00:05:59;;;;;;;;;;;19.20;86.00;;;;;;6172968;23;19932;-96
2022/06/09 00:08:25;;;;;;;;;;;19.00;85.90;;;;;;6167568;23;20010;-96
2022/06/09 00:10:56;;;;;;;;;;;18.90;86.40;;;;;;6172002;23;19962;-96
2022/06/09 00:13:22;;;;;;;;;;;18.80;86.80;;;;;;6146850;23;19986;-96
2022/06/09 00:15:48;;;;;;;;;;;18.80;87.10;;;;;;6147370;23;19939;-96
2022/06/09 00:18:15;;;;;;;;;;;18.80;87.10;;;;;;6146040;23;19941;-96
2022/06/09 00:20:41;;;;;;;;;;;18.90;86.50;;;;;;6145746;23;19970;-96
2022/06/09 00:23:07;;;;;;;;;;;18.90;86.70;;;;;;6145121;23;19962;-96
2022/06/09 00:25:35;;;;;;;;;;;18.90;86.60;;;;;;6143642;23;20011;-96
2022/06/09 00:28:01;;;;;;;;;;;18.90;86.30;;;;;;6171658;23;19945;-96
2022/06/09 00:30:27;;;;;;;;;;;18.90;86.10;;;;;;6172568;23;19931;-96
2022/06/09 00:32:53;;;;;;;;;;;18.90;86.20;;;;;;6145415;23;20251;-96
2022/06/09 00:35:19;;;;;;;;;;;18.90;85.70;;;;;;6172034;23;20362;-96
2022/06/09 00:37:45;;;;;;;;;;;18.80;85.50;;;;;;6170665;23;19987;-96
2022/06/09 00:40:12;;;;;;;;;;;18.80;84.80;;;;;;6169381;23;19940;-96
2022/06/09 00:42:38;;;;;;;;;;;18.80;84.50;;;;;;6169584;23;19961;-96
2022/06/09 00:45:33;;;;;;;;;;;18.70;84.30;;;;;;6171163;23;19946;-96
2022/06/09 00:48:06;;;;;;;;;;;18.80;84.40;;;;;;6152275;23;20371;-96
2022/06/09 00:50:33;;;;;;;;;;;18.70;84.40;;;;;;6171314;23;19933;-96
2022/06/09 00:53:02;;;;;;;;;;;18.70;84.70;;;;;;6145442;23;20247;-96
2022/06/09 00:55:30;;;;;;;;;;;18.70;84.80;;;;;;6143195;23;19952;-96
2022/06/09 00:57:59;;;;;;;;;;;18.50;84.90;;;;;;6143749;23;20361;-96
2022/06/09 01:00:27;;;;;;;;;;;18.50;85.10;;;;;;6171003;23;19992;-96
2022/06/09 01:02:54;;;;;;;;;;;18.50;85.10;;;;;;6142660;23;19963;-97
2022/06/09 01:05:21;;;;;;;;;;;18.40;84.70;;;;;;6167540;23;20500;-96
2022/06/09 01:07:49;;;;;;;;;;;18.40;84.70;;;;;;6163214;23;19937;-96
2022/06/09 01:10:14;;;;;;;;;;;18.30;84.80;;;;;;6142890;23;19976;-96
2022/06/09 01:12:42;;;;;;;;;;;18.30;85.40;;;;;;6167407;23;19963;-96
2022/06/09 01:15:11;;;;;;;;;;;18.30;85.70;;;;;;6142171;23;19944;-96
2022/06/09 01:17:40;;;;;;;;;;;18.30;85.70;;;;;;6168212;23;19930;-96
2022/06/09 01:20:31;;;;;;;;;;;18.30;85.90;;;;;;6168899;23;19945;-96
2022/06/09 01:23:15;;;;;;;;;;;18.30;85.80;;;;;;6142172;23;19970;-96
2022/06/09 01:25:46;;;;;;;;;;;18.20;85.20;;;;;;6142820;23;19984;-96
2022/06/09 01:28:22;;;;;;;;;;;18.20;85.00;;;;;;6143374;23;19938;-96
2022/06/09 01:30:51;;;;;;;;;;;18.30;84.50;;;;;;6142241;23;19936;-96
2022/06/09 01:33:25;;;;;;;;;;;18.20;84.10;;;;;;6144049;23;19953;-96
2022/06/09 01:35:54;;;;;;;;;;;18.30;83.50;;;;;;6144470;23;20274;-96
2022/06/09 01:38:20;;;;;;;;;;;18.30;83.30;;;;;;6172601;23;19941;-96
2022/06/09 01:40:46;;;;;;;;;;;18.30;83.50;;;;;;6147492;23;19942;-96
2022/06/09 01:43:12;;;;;;;;;;;18.40;83.60;;;;;;6147591;23;19989;-96
2022/06/09 01:46:02;;;;;;;;;;;18.40;84.20;;;;;;6175361;23;19934;-96
2022/06/09 01:48:29;;;;;;;;;;;18.50;83.90;;;;;;6148543;23;19980;-96
2022/06/09 01:51:00;;;;;;;;;;;18.50;83.50;;;;;;6148588;23;20372;-96
2022/06/09 01:53:25;;;;;;;;;;;18.60;83.20;;;;;;6171952;23;19934;-96
2022/06/09 01:55:59;;;;;;;;;;;18.60;81.10;;;;;;6170712;23;19982;-96
2022/06/09 01:58:31;;;;;;;;;;;18.80;80.40;;;;;;6171701;23;20357;-96
2022/06/09 02:00:58;;;;;;;;;;;18.80;80.10;;;;;;6172365;23;20356;-96
2022/06/09 02:03:27;;;;;;;;;;;18.80;79.50;;;;;;6145937;23;19964;-96
2022/06/09 02:05:54;;;;;;;;;;;18.80;79.00;;;;;;6146736;23;19950;-96
2022/06/09 02:08:22;;;;;;;;;;;18.90;79.10;;;;;;6141203;23;19969;-96
2022/06/09 02:10:53;;;;;;;;;;;18.90;79.10;;;;;;6169030;23;19936;-96
2022/06/09 02:13:20;;;;;;;;;;;18.80;78.90;;;;;;6168635;23;19940;-96
2022/06/09 02:15:48;;;;;;;;;;;18.80;78.50;;;;;;6169500;23;19931;-96
2022/06/09 02:18:15;;;;;;;;;;;18.80;78.10;;;;;;6140722;23;19971;-96
2022/06/09 02:20:48;;;;;;;;;;;18.80;77.90;;;;;;6168372;23;19937;-96
2022/06/09 02:23:14;;;;;;;;;;;18.80;77.80;;;;;;6167687;23;19959;-96
2022/06/09 02:25:40;;;;;;;;;;;18.80;77.40;;;;;;6165385;23;20323;-96
2022/06/09 02:28:07;;;;;;;;;;;18.90;77.20;;;;;;6166959;23;19939;-96
2022/06/09 02:30:33;;;;;;;;;;;18.80;77.00;;;;;;6168036;23;19955;-96
2022/06/09 02:32:59;;;;;;;;;;;18.80;77.30;;;;;;6141955;23;19945;-96
2022/06/09 02:35:25;;;;;;;;;;;18.80;77.20;;;;;;6168592;23;19984;-96
2022/06/09 02:37:51;;;;;;;;;;;18.80;77.60;;;;;;6144634;23;19945;-96
2022/06/09 02:40:17;;;;;;;;;;;18.90;77.70;;;;;;6168520;23;19931;-96
2022/06/09 02:42:42;;;;;;;;;;;18.80;77.40;;;;;;6169317;23;19956;-96
2022/06/09 02:45:09;;;;;;;;;;;18.80;77.70;;;;;;6169692;23;19992;-96
2022/06/09 02:47:34;;;;;;;;;;;18.80;77.50;;;;;;6144009;23;19944;-96
2022/06/09 02:50:01;;;;;;;;;;;18.80;77.40;;;;;;6144974;23;19946;-96
2022/06/09 02:52:26;;;;;;;;;;;18.80;77.40;;;;;;6144781;23;19942;-96
2022/06/09 02:54:54;;;;;;;;;;;18.70;77.30;;;;;;6169564;23;19988;-96
2022/06/09 02:57:20;;;;;;;;;;;18.70;77.30;;;;;;6143168;23;19964;-96
2022/06/09 02:59:46;;;;;;;;;;;18.60;76.70;;;;;;6169041;23;19939;-96
2022/06/09 03:02:11;;;;;;;;;;;18.60;77.30;;;;;;6143847;23;19976;-96
2022/06/09 03:04:37;;;;;;;;;;;18.60;76.80;;;;;;6141041;23;19986;-96
2022/06/09 03:07:03;;;;;;;;;;;18.60;76.10;;;;;;6166550;23;19939;-96
2022/06/09 03:09:29;;;;;;;;;;;18.50;76.50;;;;;;6141135;23;19943;-96
2022/06/09 03:11:55;;;;;;;;;;;18.40;76.50;;;;;;6168436;23;19940;-96
2022/06/09 03:14:21;;;;;;;;;;;18.40;76.50;;;;;;6171363;23;20026;-96
2022/06/09 03:16:46;;;;;;;;;;;18.40;76.30;;;;;;6170865;23;19952;-96
2022/06/09 03:19:12;;;;;;;;;;;18.40;76.00;;;;;;6170535;23;19961;-96
2022/06/09 03:21:39;;;;;;;;;;;18.40;75.30;;;;;;6145899;23;19935;-96
2022/06/09 03:24:04;;;;;;;;;;;18.50;75.20;;;;;;6145364;23;19973;-96
2022/06/09 03:26:30;;;;;;;;;;;18.50;74.20;;;;;;6172072;23;20279;-96
2022/06/09 03:28:59;;;;;;;;;;;18.50;74.00;;;;;;6145370;23;19998;-96
2022/06/09 03:31:25;;;;;;;;;;;18.60;74.50;;;;;;6144913;23;19944;-96
2022/06/09 03:33:50;;;;;;;;;;;18.50;74.80;;;;;;6168749;23;20240;-96
2022/06/09 03:36:16;;;;;;;;;;;18.50;75.30;;;;;;6143303;23;19944;-96
2022/06/09 03:38:42;;;;;;;;;;;18.30;76.80;;;;;;6144353;23;19979;-96
2022/06/09 03:41:08;;;;;;;;;;;18.30;78.70;;;;;;6149602;23;19942;-96
2022/06/09 03:43:35;;;;;;;;;;;18.10;79.90;;;;;;6149394;23;19977;-96
2022/06/09 03:46:01;;;;;;;;;;;17.90;80.30;;;;;;6175017;23;19946;-96
2022/06/09 03:48:29;;;;;;;;;;;17.80;79.00;;;;;;6176232;23;19947;-96
2022/06/09 03:50:55;;;;;;;;;;;17.80;79.50;;;;;;6178949;23;19941;-96
2022/06/09 03:53:22;;;;;;;;;;;17.70;80.80;;;;;;6153429;23;19956;-96
2022/06/09 03:55:48;;;;;;;;;;;17.60;82.90;;;;;;6178925;23;19987;-96
2022/06/09 03:58:15;;;;;;;;;;;17.50;84.40;;;;;;6178336;23;19983;-96
2022/06/09 04:00:41;;;;;;;;;;;17.30;85.40;;;;;;6153382;23;19946;-96
2022/06/09 04:03:14;;;;;;;;;;;17.30;85.60;;;;;;6152422;23;19957;-97
2022/06/09 04:05:40;;;;;;;;;;;17.10;86.40;;;;;;6178097;23;19987;-97
2022/06/09 04:08:06;;;;;;;;;;;17.10;86.90;;;;;;6149625;23;19956;-96
2022/06/09 04:10:33;;;;;;;;;;;17.10;86.90;;;;;;6175445;23;19939;-96
2022/06/09 04:12:59;;;;;;;;;;;17.10;86.60;;;;;;6147702;23;19942;-96
2022/06/09 04:15:25;;;;;;;;;;;17.10;86.10;;;;;;6172370;23;19934;-96
2022/06/09 04:17:54;;;;;;;;;;;17.00;85.60;;;;;;6146401;23;19969;-96
2022/06/09 04:20:21;;;;;;;;;;;17.00;85.20;;;;;;6147332;23;19945;-96
2022/06/09 04:22:47;;;;;;;;;;;17.00;84.70;;;;;;6173905;23;19966;-96
2022/06/09 04:25:13;;;;;;;;;;;17.00;85.70;;;;;;6147005;23;19990;-96
2022/06/09 04:27:39;;;;;;;;;;;17.00;85.60;;;;;;6170593;23;20316;-96
2022/06/09 04:30:06;;;;;;;;;;;16.90;86.00;;;;;;6144815;23;19941;-96
2022/06/09 04:32:32;;;;;;;;;;;16.80;86.60;;;;;;6144341;23;19944;-96
2022/06/09 04:34:58;;;;;;;;;;;16.80;87.20;;;;;;6171665;23;19984;-96
2022/06/09 04:37:59;;;;;;;;;;;16.70;87.40;;;;;;6171264;23;19938;-96
2022/06/09 04:40:10;;;;;;;;;;;16.70;87.20;;;;;;6171015;23;19948;-96
2022/06/09 04:42:35;;;;;;;;;;;16.80;85.80;;;;;;6172408;23;19958;-96
2022/06/09 04:45:01;;;;;;;;;;;16.90;86.10;;;;;;6162544;23;19944;-96
2022/06/09 04:47:27;;;;;;;;;;;17.00;86.50;;;;;;6135853;23;19943;-96
2022/06/09 04:49:52;;;;;;;;;;;17.00;86.70;;;;;;6163029;23;19938;-96
2022/06/09 04:52:18;;;;;;;;;;;17.10;86.90;;;;;;6135369;23;19955;-96
2022/06/09 04:54:43;;;;;;;;;;;17.10;87.70;;;;;;6163454;23;19937;-96
2022/06/09 04:57:09;;;;;;;;;;;17.10;87.70;;;;;;6165080;23;20026;-96
2022/06/09 04:59:35;;;;;;;;;;;17.10;87.70;;;;;;6165588;23;20011;-96
2022/06/09 05:02:00;;;;;;;;;;;17.20;87.80;;;;;;6139786;23;19945;-96
2022/06/09 05:04:26;;;;;;;;;;;17.30;87.70;;;;;;6140853;23;20003;-96
2022/06/09 05:06:52;;;;;;;;;;;17.30;87.80;;;;;;6138320;23;20357;-96
2022/06/09 05:09:18;;;;;;;;;;;17.40;87.60;;;;;;6164798;23;20362;-96
2022/06/09 05:11:43;;;;;;;;;;;17.60;87.00;;;;;;6166954;23;19934;-96
2022/06/09 05:14:09;;;;;;;;;;;17.60;86.80;;;;;;6142722;23;19942;-96
2022/06/09 05:16:35;;;;;;;;;;;17.80;86.80;;;;;;6167694;23;20339;-96
2022/06/09 05:19:00;;;;;;;;;;;17.80;86.40;;;;;;6168687;23;19957;-96
2022/06/09 05:21:26;;;;;;;;;;;17.80;86.00;;;;;;6142530;23;20019;-96
2022/06/09 05:23:54;;;;;;;;;;;17.80;85.90;;;;;;6167394;23;20279;-96
2022/06/09 05:26:21;;;;;;;;;;;17.80;85.50;;;;;;6164629;23;20005;-96
2022/06/09 05:28:47;;;;;;;;;;;17.80;85.20;;;;;;6169532;23;19943;-96
2022/06/09 05:31:13;;;;;;;;;;;17.80;85.10;;;;;;6137419;23;20016;-96
2022/06/09 05:33:39;;;;;;;;;;;17.70;84.70;;;;;;6138156;23;20321;-96
2022/06/09 05:36:05;;;;;;;;;;;17.80;84.80;;;;;;6168831;23;19934;-96
2022/06/09 05:46:44;;;;;;;;;;;17.80;84.50;;;;;;6164638;23;20001;-96
2022/06/09 05:49:10;;;;;;;;;;;17.90;84.70;;;;;;6168388;23;19937;-96
2022/06/09 05:51:36;;;;;;;;;;;18.10;84.60;;;;;;6142293;23;20272;-96
2022/06/09 05:54:02;;;;;;;;;;;18.20;84.60;;;;;;6142957;23;19947;-96
2022/06/09 05:56:28;;;;;;;;;;;18.30;84.10;;;;;;6139344;23;19939;-96
2022/06/09 05:58:55;;;;;;;;;;;18.40;84.20;;;;;;6160859;23;19937;-96
2022/06/09 06:01:21;;;;;;;;;;;18.50;83.50;;;;;;6139562;23;19945;-96
2022/06/09 06:03:48;;;;;;;;;;;18.60;83.30;;;;;;6179607;23;19981;-96
2022/06/09 06:08:58;;;;;;;;;;;18.80;81.90;;;;;;6198396;23;19947;-96
2022/06/09 06:11:24;;;;;;;;;;;19.00;80.70;;;;;;6202141;23;19967;-96
2022/06/09 06:13:50;;;;;;;;;;;19.10;79.80;;;;;;6203202;23;19956;-96
2022/06/09 06:16:16;;;;;;;;;;;19.30;79.60;;;;;;6180560;23;19983;-97
2022/06/09 06:18:45;;;;;;;;;;;19.40;78.20;;;;;;6180048;23;19943;-96
2022/06/09 06:21:11;;;;;;;;;;;19.50;76.50;;;;;;6171444;23;20433;-96
2022/06/09 06:23:37;;;;;;;;;;;19.60;74.90;;;;;;6201465;23;19941;-96
2022/06/09 06:26:03;;;;;;;;;;;19.70;73.70;;;;;;6177360;23;19950;-96
2022/06/09 06:28:31;;;;;;;;;;;19.80;73.90;;;;;;6206114;23;19969;-96
2022/06/09 06:30:58;;;;;;;;;;;19.90;72.70;;;;;;6181152;23;19988;-97
2022/06/09 06:33:24;;;;;;;;;;;20.00;71.60;;;;;;6181579;23;19947;-96
2022/06/09 06:35:54;;;;;;;;;;;20.10;71.20;;;;;;6186801;23;19931;-96
2022/06/09 06:38:25;;;;;;;;;;;20.30;71.20;;;;;;6183722;23;19984;-96
2022/06/09 06:40:54;;;;;;;;;;;20.30;70.30;;;;;;6183710;23;19926;-96
2022/06/09 06:43:22;;;;;;;;;;;20.50;69.10;;;;;;6184009;23;20011;-96
2022/06/09 06:45:48;;;;;;;;;;;20.50;67.80;;;;;;6184852;23;19941;-96
2022/06/09 06:48:15;;;;;;;;;;;20.50;67.50;;;;;;6182790;23;19935;-96
2022/06/09 06:50:41;;;;;;;;;;;20.60;67.30;;;;;;6183172;23;19945;-96
2022/06/09 06:53:07;;;;;;;;;;;20.60;67.90;;;;;;6181222;23;19947;-96
2022/06/09 06:55:34;;;;;;;;;;;20.70;66.60;;;;;;6177177;23;19942;-96
2022/06/09 07:00:42;;;;;;;;;;;20.70;68.00;;;;;;6132091;23;19959;-96
2022/06/09 07:03:07;;;;;;;;;;;20.60;65.20;;;;;;6135883;23;20002;-96
2022/06/09 07:05:33;;;;;;;;;;;20.50;65.60;;;;;;6132638;23;19949;-96
2022/06/09 07:07:58;;;;;;;;;;;20.50;66.40;;;;;;6136471;23;19938;-96
2022/06/09 07:10:24;;;;;;;;;;;20.50;65.50;;;;;;6131741;23;20469;-96
2022/06/09 07:12:50;;;;;;;;;;;20.60;64.90;;;;;;6128949;23;20404;-95
2022/06/09 07:15:16;;;;;;;;;;;20.60;65.00;;;;;;6138562;23;19941;-96
2022/06/09 07:17:42;;;;;;;;;;;20.70;64.50;;;;;;6118992;23;19947;-96
2022/06/09 07:20:09;;;;;;;;;;;20.60;64.80;;;;;;6144634;23;19993;-96
2022/06/09 07:22:35;;;;;;;;;;;20.70;63.90;;;;;;6117634;23;19960;-96
2022/06/09 07:25:01;;;;;;;;;;;20.70;65.90;;;;;;6117226;23;19953;-96
2022/06/09 07:27:26;;;;;;;;;;;20.80;67.20;;;;;;6115817;23;19939;-96
2022/06/09 07:29:53;;;;;;;;;;;20.80;65.20;;;;;;6144943;23;19935;-96
2022/06/09 07:32:22;;;;;;;;;;;20.90;65.90;;;;;;6123411;23;19941;-96
2022/06/09 07:34:51;;;;;;;;;;;21.00;65.50;;;;;;6125483;23;19948;-96
2022/06/09 07:37:17;;;;;;;;;;;21.10;64.90;;;;;;6126291;23;19920;-96
2022/06/09 07:39:42;;;;;;;;;;;21.20;64.10;;;;;;6104817;23;19937;-96
2022/06/09 07:42:09;;;;;;;;;;;21.30;63.50;;;;;;6130057;23;20244;-96
2022/06/09 07:44:35;;;;;;;;;;;21.40;63.10;;;;;;6130011;23;19969;-96
2022/06/09 07:47:00;;;;;;;;;;;21.50;62.00;;;;;;6130055;23;19942;-96
2022/06/09 07:49:26;;;;;;;;;;;21.70;61.30;;;;;;6129949;23;19966;-96
2022/06/09 07:51:52;;;;;;;;;;;21.70;61.30;;;;;;6103272;23;19943;-96
2022/06/09 07:54:17;;;;;;;;;;;21.60;59.50;;;;;;6129178;23;20056;-96
2022/06/09 07:56:43;;;;;;;;;;;21.50;60.40;;;;;;6128333;23;19967;-96
2022/06/09 07:59:09;;;;;;;;;;;21.60;61.00;;;;;;6129255;23;19971;-96
2022/06/09 08:01:35;;;;;;;;;;;21.60;61.20;;;;;;6130474;23;19994;-96
2022/06/09 08:04:00;;;;;;;;;;;21.60;60.30;;;;;;6130604;23;20006;-96
2022/06/09 08:06:26;;;;;;;;;;;21.60;61.40;;;;;;6132875;23;19938;-96
2022/06/09 08:08:55;;;;;;;;;;;21.40;61.90;;;;;;6106802;23;19943;-96
2022/06/09 08:11:21;;;;;;;;;;;21.30;62.40;;;;;;6129897;23;19938;-96
2022/06/09 08:13:47;;;;;;;;;;;21.20;63.00;;;;;;6106135;23;20411;-96
2022/06/09 08:16:13;;;;;;;;;;;21.20;62.90;;;;;;6139095;23;19937;-96
2022/06/09 08:18:40;;;;;;;;;;;21.30;63.20;;;;;;6120628;23;19947;-96
2022/06/09 08:21:06;;;;;;;;;;;21.50;63.60;;;;;;6119426;23;19944;-96
2022/06/09 08:23:32;;;;;;;;;;;21.50;62.40;;;;;;6121427;23;20006;-96
2022/06/09 08:26:05;;;;;;;;;;;21.40;62.40;;;;;;6144923;23;19957;-96
2022/06/09 08:28:31;;;;;;;;;;;21.30;62.40;;;;;;6117132;23;19969;-96
2022/06/09 08:30:58;;;;;;;;;;;21.40;63.60;;;;;;6118805;23;19941;-96
2022/06/09 08:33:24;;;;;;;;;;;21.50;61.60;;;;;;6136695;23;19951;-96
2022/06/09 08:35:50;;;;;;;;;;;21.50;60.90;;;;;;6133089;23;19938;-96
2022/06/09 08:38:16;;;;;;;;;;;21.40;61.50;;;;;;6132772;23;19939;-96
2022/06/09 08:41:00;;;;;;;;;;;21.30;61.80;;;;;;6132105;23;20027;-96
2022/06/09 08:43:26;;;;;;;;;;;21.30;61.40;;;;;;6131766;23;19959;-96
2022/06/09 08:45:57;;;;;;;;;;;21.30;61.60;;;;;;6133980;23;19940;-96
2022/06/09 08:48:23;;;;;;;;;;;21.30;61.30;;;;;;6128265;23;19989;-96
2022/06/09 08:51:01;;;;;;;;;;;21.20;61.70;;;;;;6128584;23;19937;-96
2022/06/09 08:53:29;;;;;;;;;;;21.20;61.60;;;;;;6128740;23;19960;-96
2022/06/09 08:55:58;;;;;;;;;;;21.10;62.60;;;;;;6128732;23;20019;-96
2022/06/09 08:58:23;;;;;;;;;;;21.00;62.20;;;;;;6127651;23;19982;-96
2022/06/09 09:00:58;;;;;;;;;;;21.00;62.00;;;;;;6130819;23;19941;-96
2022/06/09 09:03:35;;;;;;;;;;;21.10;63.30;;;;;;6128607;23;19966;-96
2022/06/09 09:06:21;;;;;;;;;;;21.00;61.90;;;;;;6129709;23;19931;-96
2022/06/09 09:08:47;;;;;;;;;;;20.90;63.10;;;;;;6128971;23;19950;-96
2022/06/09 09:11:30;;;;;;;;;;;20.90;64.30;;;;;;6130742;23;19970;-96
2022/06/09 09:14:06;;;;;;;;;;;20.90;64.00;;;;;;6135416;23;19939;-96
2022/06/09 09:16:44;;;;;;;;;;;20.80;63.60;;;;;;6133365;23;19938;-96
2022/06/09 09:19:18;;;;;;;;;;;20.90;65.60;;;;;;6132179;23;19937;-96
2022/06/09 09:21:50;;;;;;;;;;;20.90;65.70;;;;;;6134794;23;19938;-96
2022/06/09 09:24:29;;;;;;;;;;;21.00;64.60;;;;;;6135465;23;19962;-96
2022/06/09 09:27:03;;;;;;;;;;;21.10;64.20;;;;;;6106684;23;19956;-96
2022/06/09 09:29:39;;;;;;;;;;;21.10;64.00;;;;;;6131969;23;19965;-96
2022/06/09 09:32:08;;;;;;;;;;;21.00;64.00;;;;;;6129998;23;19940;-96
2022/06/09 09:34:38;;;;;;;;;;;20.90;64.90;;;;;;6105157;23;19948;-96
2022/06/09 09:37:20;;;;;;;;;;;20.90;63.80;;;;;;6132759;23;19954;-96
2022/06/09 09:39:52;;;;;;;;;;;20.90;65.70;;;;;;6134456;23;19945;-97
2022/06/09 09:42:20;;;;;;;;;;;20.90;66.80;;;;;;6133581;23;19968;-96
2022/06/09 09:45:12;;;;;;;;;;;20.80;67.50;;;;;;6134726;23;20017;-96
2022/06/09 09:47:46;;;;;;;;;;;20.80;68.60;;;;;;6107409;23;19998;-96
2022/06/09 09:50:21;;;;;;;;;;;20.80;66.90;;;;;;6132715;23;19939;-96
2022/06/09 09:52:53;;;;;;;;;;;20.60;68.00;;;;;;6134500;23;19939;-96
2022/06/09 09:55:21;;;;;;;;;;;20.50;68.00;;;;;;6135161;23;19942;-96
2022/06/09 09:57:47;;;;;;;;;;;20.50;69.50;;;;;;6109802;23;19979;-96
2022/06/09 10:00:25;;;;;;;;;;;20.50;68.80;;;;;;6137661;23;20309;-96
2022/06/09 10:08:40;;;;;;;;;;;20.40;69.60;;;;;;6137213;23;19946;-96
2022/06/09 10:14:05;;;;;;;;;;;20.50;68.70;;;;;;6133731;23;19949;-96
2022/06/09 10:16:32;;;;;;;;;;;20.40;68.70;;;;;;6110153;23;19933;-96
2022/06/09 10:19:04;;;;;;;;;;;20.20;68.10;;;;;;6131660;23;19938;-96
2022/06/09 10:21:47;;;;;;;;;;;20.10;69.60;;;;;;6130692;23;19940;-96
2022/06/09 10:24:15;;;;;;;;;;;20.10;68.40;;;;;;6104841;23;19964;-96
2022/06/09 10:26:41;;;;;;;;;;;20.10;71.50;;;;;;6130351;23;20026;-96
2022/06/09 10:29:21;;;;;;;;;;;20.10;73.40;;;;;;6131412;23;19937;-96
2022/06/09 10:32:00;;;;;;;;;;;20.30;74.60;;;;;;6130638;23;19942;-96
2022/06/09 10:34:35;;;;;;;;;;;20.40;74.40;;;;;;6133134;23;19933;-96
2022/06/09 10:37:06;;;;;;;;;;;20.50;73.50;;;;;;6108432;23;19973;-96
2022/06/09 10:39:38;;;;;;;;;;;20.60;72.90;;;;;;6132350;23;19939;-96
2022/06/09 10:42:21;;;;;;;;;;;20.60;74.00;;;;;;6134697;23;19998;-96
2022/06/09 10:44:51;;;;;;;;;;;20.60;72.20;;;;;;6137072;23;19945;-96
2022/06/09 10:56:13;;;;;;;;;;;20.80;72.80;;;;;;6136073;23;19942;-96
2022/06/09 10:58:45;;;;;;;;;;;20.90;70.20;;;;;;6110826;23;20409;-96
2022/06/09 11:01:17;;;;;;;;;;;20.90;70.30;;;;;;6110589;23;20347;-96
2022/06/09 11:03:45;;;;;;;;;;;21.00;71.40;;;;;;6136244;23;19963;-96
2022/06/09 11:06:24;;;;;;;;;;;21.10;70.10;;;;;;6111398;23;19993;-96
2022/06/09 11:08:56;;;;;;;;;;;21.20;69.40;;;;;;6108180;23;19982;-96
2022/06/09 11:11:25;;;;;;;;;;;21.20;69.70;;;;;;6133537;23;19937;-96
2022/06/09 11:14:13;;;;;;;;;;;21.20;68.10;;;;;;6134494;23;19939;-96
2022/06/09 11:16:38;;;;;;;;;;;21.30;68.50;;;;;;6130771;23;19937;-96
2022/06/09 11:19:07;;;;;;;;;;;21.10;67.10;;;;;;6131116;23;19945;-96
2022/06/09 11:21:51;;;;;;;;;;;21.00;68.60;;;;;;6131945;23;20256;-96
2022/06/09 11:24:16;;;;;;;;;;;20.90;70.50;;;;;;6130698;23;19961;-96
2022/06/09 11:26:48;;;;;;;;;;;20.90;71.70;;;;;;6105268;23;20074;-96
2022/06/09 11:29:33;;;;;;;;;;;20.90;72.40;;;;;;6133061;23;19944;-96
2022/06/09 11:32:06;;;;;;;;;;;20.80;72.50;;;;;;6108038;23;20380;-96
2022/06/09 11:34:49;;;;;;;;;;;20.80;73.70;;;;;;6133135;23;20336;-96
2022/06/09 11:37:21;;;;;;;;;;;20.70;74.20;;;;;;6107268;23;19952;-96
2022/06/09 11:40:07;;;;;;;;;;;20.70;75.80;;;;;;6134354;23;19939;-96
2022/06/09 11:42:41;;;;;;;;;;;20.70;73.30;;;;;;6134028;23;19957;-96
2022/06/09 11:45:30;;;;;;;;;;;20.70;73.10;;;;;;6134345;23;19944;-96
2022/06/09 11:47:57;;;;;;;;;;;20.60;72.10;;;;;;6133199;23;20024;-96
2022/06/09 11:50:26;;;;;;;;;;;20.40;74.80;;;;;;6131460;23;19947;-96
2022/06/09 11:52:52;;;;;;;;;;;20.30;74.00;;;;;;6131504;23;20029;-96
2022/06/09 11:58:36;;;;;;;;;;;20.30;75.30;;;;;;6129117;23;19944;-96
2022/06/09 12:01:20;;;;;;;;;;;20.30;75.20;;;;;;6137396;23;19945;-96
2022/06/09 12:04:04;;;;;;;;;;;20.40;75.80;;;;;;6110970;23;20036;-96
2022/06/09 12:06:55;;;;;;;;;;;20.40;74.80;;;;;;6131640;23;19986;-96
2022/06/09 12:09:41;;;;;;;;;;;20.30;75.00;;;;;;6131631;23;19934;-96
2022/06/09 12:12:26;;;;;;;;;;;20.30;76.00;;;;;;6120787;23;19941;-96
2022/06/09 12:15:15;;;;;;;;;;;20.40;76.80;;;;;;6120594;23;20272;-96
2022/06/09 12:18:01;;;;;;;;;;;20.30;77.60;;;;;;6105078;23;20377;-96
2022/06/09 12:20:47;;;;;;;;;;;20.30;79.10;;;;;;6132671;23;19937;-96
2022/06/09 12:23:21;;;;;;;;;;;20.50;78.40;;;;;;6130829;23;19961;-96
2022/06/09 12:26:07;;;;;;;;;;;20.50;76.80;;;;;;6133865;23;19953;-96
2022/06/09 12:28:45;;;;;;;;;;;20.60;76.70;;;;;;6123782;23;19947;-96
2022/06/09 12:31:18;;;;;;;;;;;20.70;75.90;;;;;;6136303;23;19948;-96
2022/06/09 12:34:02;;;;;;;;;;;20.80;75.80;;;;;;6138651;23;19957;-96
2022/06/09 12:36:28;;;;;;;;;;;20.80;76.40;;;;;;6140258;23;20014;-96
2022/06/09 12:38:56;;;;;;;;;;;20.70;76.90;;;;;;6140914;23;19996;-96
2022/06/09 12:41:27;;;;;;;;;;;20.80;78.20;;;;;;6140469;23;19958;-96
2022/06/09 12:43:56;;;;;;;;;;;20.80;78.50;;;;;;6133729;23;19966;-96
2022/06/09 12:46:23;;;;;;;;;;;20.70;77.40;;;;;;6131079;23;20011;-96
2022/06/09 12:48:50;;;;;;;;;;;20.70;79.00;;;;;;6130780;23;19942;-96
2022/06/09 12:51:17;;;;;;;;;;;20.70;80.10;;;;;;6131324;23;19968;-96
2022/06/09 12:53:50;;;;;;;;;;;20.80;81.60;;;;;;6131613;23;19935;-96
2022/06/09 12:56:24;;;;;;;;;;;20.90;81.80;;;;;;6132196;23;19942;-96
2022/06/09 12:58:50;;;;;;;;;;;20.90;80.90;;;;;;6133374;23;19959;-96
2022/06/09 13:01:18;;;;;;;;;;;21.00;79.20;;;;;;6132401;23;19947;-96
2022/06/09 13:03:49;;;;;;;;;;;21.10;78.10;;;;;;6134305;23;19964;-96
2022/06/09 13:06:20;;;;;;;;;;;21.30;77.60;;;;;;6111315;23;20243;-96
2022/06/09 13:08:48;;;;;;;;;;;21.40;75.50;;;;;;6137831;23;19937;-96
2022/06/09 13:11:19;;;;;;;;;;;21.60;76.90;;;;;;6109235;23;20070;-96
2022/06/09 13:13:45;;;;;;;;;;;21.70;75.90;;;;;;6133033;23;19943;-96
2022/06/09 13:16:14;;;;;;;;;;;21.70;74.20;;;;;;6130099;23;19976;-96
2022/06/09 13:18:43;;;;;;;;;;;21.80;76.10;;;;;;6128178;23;20043;-96
2022/06/09 13:21:08;;;;;;;;;;;21.80;80.20;;;;;;6127935;23;20345;-96
2022/06/09 13:23:34;;;;;;;;;;;21.90;79.10;;;;;;6127651;23;19958;-96
2022/06/09 13:26:00;;;;;;;;;;;21.80;75.40;;;;;;6127989;23;19936;-96
2022/06/09 13:28:34;;;;;;;;;;;21.80;73.10;;;;;;6128535;23;20341;-96
2022/06/09 13:31:01;;;;;;;;;;;21.80;73.00;;;;;;6129054;23;20375;-96
2022/06/09 13:33:26;;;;;;;;;;;21.80;70.10;;;;;;6131681;23;19960;-96
2022/06/09 13:35:53;;;;;;;;;;;21.90;71.20;;;;;;6132676;23;19936;-96
2022/06/09 13:38:31;;;;;;;;;;;22.00;72.50;;;;;;6132681;23;19957;-96
2022/06/09 13:41:00;;;;;;;;;;;22.00;73.90;;;;;;6134788;23;19946;-96
2022/06/09 13:43:26;;;;;;;;;;;22.20;73.10;;;;;;6133792;23;19980;-96
2022/06/09 13:45:54;;;;;;;;;;;22.30;72.20;;;;;;6135263;23;19955;-96
2022/06/09 13:48:22;;;;;;;;;;;22.20;71.50;;;;;;6133245;23;19942;-96
2022/06/09 13:51:03;;;;;;;;;;;22.10;71.40;;;;;;6133074;23;19935;-96
2022/06/09 13:53:37;;;;;;;;;;;22.10;70.60;;;;;;6131864;23;20345;-96
2022/06/09 13:56:05;;;;;;;;;;;22.10;68.00;;;;;;6131071;23;19939;-96
2022/06/09 13:58:31;;;;;;;;;;;22.00;70.50;;;;;;6130208;23;19972;-96
2022/06/09 14:00:59;;;;;;;;;;;21.90;71.00;;;;;;6103149;23;19954;-96
2022/06/09 14:03:26;;;;;;;;;;;22.00;72.70;;;;;;6129461;23;19964;-96
2022/06/09 14:05:53;;;;;;;;;;;22.00;71.90;;;;;;6103764;23;19935;-96
2022/06/09 14:08:21;;;;;;;;;;;21.80;68.80;;;;;;6129336;23;19989;-96
2022/06/09 14:10:47;;;;;;;;;;;21.80;72.00;;;;;;6128294;23;20009;-96
2022/06/09 14:13:12;;;;;;;;;;;21.70;73.70;;;;;;6128855;23;19935;-96
2022/06/09 14:15:40;;;;;;;;;;;21.80;73.90;;;;;;6128122;23;20405;-96
2022/06/09 14:18:09;;;;;;;;;;;21.80;75.30;;;;;;6129766;23;19932;-96
2022/06/09 14:20:35;;;;;;;;;;;21.80;69.30;;;;;;6129367;23;19949;-96
2022/06/09 14:23:01;;;;;;;;;;;21.80;72.70;;;;;;6130585;23;20039;-96
2022/06/09 14:25:29;;;;;;;;;;;22.00;74.00;;;;;;6131043;23;19958;-96
2022/06/09 14:27:55;;;;;;;;;;;22.20;71.30;;;;;;6103045;23;19945;-96
2022/06/09 14:30:22;;;;;;;;;;;22.30;70.90;;;;;;6128620;23;19940;-96
2022/06/09 14:32:47;;;;;;;;;;;22.40;73.50;;;;;;6128787;23;19980;-96
2022/06/09 14:35:16;;;;;;;;;;;22.40;73.30;;;;;;6128982;23;19938;-96
2022/06/09 14:37:43;;;;;;;;;;;22.40;71.60;;;;;;6130474;23;19940;-96
2022/06/09 14:40:28;;;;;;;;;;;22.50;72.80;;;;;;6128766;23;19944;-96
2022/06/09 14:42:54;;;;;;;;;;;22.60;71.10;;;;;;6129930;23;20451;-96
2022/06/09 14:45:20;;;;;;;;;;;22.80;69.20;;;;;;6127499;23;19941;-96
2022/06/09 14:47:46;;;;;;;;;;;22.90;68.20;;;;;;6101443;23;19951;-96
2022/06/09 14:50:15;;;;;;;;;;;22.80;68.10;;;;;;6127809;23;19942;-96
2022/06/09 14:52:41;;;;;;;;;;;22.80;67.30;;;;;;6127275;23;19943;-96
2022/06/09 14:55:07;;;;;;;;;;;22.80;66.60;;;;;;6102822;23;19942;-96
2022/06/09 14:57:32;;;;;;;;;;;22.80;69.40;;;;;;6127885;23;19935;-96
2022/06/09 14:59:58;;;;;;;;;;;22.80;65.50;;;;;;6169797;23;19982;-96
2022/06/09 15:02:24;;;;;;;;;;;22.70;66.10;;;;;;6187635;23;20290;-96